CheckWX is a tool to help pilots better visualize weather data.  It is not intended as a substitute for an official pre-flight weather briefing.

20:21:25 UTC

KXNA TAF
Northwest Arkansas Regional Airport
Fayetteville/Springdale/Rogers, Arkansas, USA
KXNA 211725Z 2118/2218 18015G23KT P6SM BKN035 BKN250 FM220000 17012KT P6SM BKN250 FM221200 19012KT P6SM BKN025 FM221500 19015G23KT P6SM SCT025 BKN035

Sep-21@
18:00 UTC

Sep-21 @ 18:00 UTC

Sep-22@
00:00 UTC

Sep-22 @ 00:00 UTC

KXNA 211725Z 2118/2218 18015G23KT P6SM BKN035 BKN250
Wind
  • 180° at 15 KTS
  • {Gusting to 23 KTS
Cloud Levels
  • Broken at 3,500' AGL
  • Broken at 25,000' AGL

Sep-22@
00:00 UTC

Sep-22 @ 00:00 UTC

Sep-22@
12:00 UTC

Sep-22 @ 12:00 UTC

FM220000 17012KT P6SM BKN250

From

From Standard forecast or significant change

Wind
  • 170° at 12 KTS
Cloud Levels
  • Broken at 25,000' AGL

Sep-22@
12:00 UTC

Sep-22 @ 12:00 UTC

Sep-22@
15:00 UTC

Sep-22 @ 15:00 UTC

FM221200 19012KT P6SM BKN025

From

From Standard forecast or significant change

Wind
  • 190° at 12 KTS
Cloud Levels
  • Broken at 2,500' AGL

Sep-22@
15:00 UTC

Sep-22 @ 15:00 UTC

Sep-22@
18:00 UTC

Sep-22 @ 18:00 UTC

FM221500 19015G23KT P6SM SCT025 BKN035

From

From Standard forecast or significant change

Wind
  • 190° at 15 KTS
  • {Gusting to 23 KTS
Cloud Levels
  • Scattered at 2,500' AGL
  • Broken at 3,500' AGL